sensor_id;sensor_type;location;lat;lon;timestamp;P1;durP1;ratioP1;P2;durP2;ratioP2
23404;SDS011;11875;49.356;2.718;2023-06-22T00:01:16;2.97;;;2.67;;
23404;SDS011;11875;49.356;2.718;2023-06-22T00:03:41;3.80;;;2.95;;
23404;SDS011;11875;49.356;2.718;2023-06-22T00:06:07;4.95;;;2.88;;
23404;SDS011;11875;49.356;2.718;2023-06-22T00:08:32;5.95;;;2.70;;
23404;SDS011;11875;49.356;2.718;2023-06-22T00:10:58;8.60;;;3.35;;
23404;SDS011;11875;49.356;2.718;2023-06-22T00:13:23;6.38;;;3.03;;
23404;SDS011;11875;49.356;2.718;2023-06-22T00:15:49;6.00;;;2.75;;
23404;SDS011;11875;49.356;2.718;2023-06-22T00:18:14;4.28;;;2.50;;
23404;SDS011;11875;49.356;2.718;2023-06-22T00:20:41;2.60;;;2.38;;
23404;SDS011;11875;49.356;2.718;2023-06-22T00:23:06;4.03;;;2.92;;
23404;SDS011;11875;49.356;2.718;2023-06-22T00:25:38;4.65;;;2.53;;
23404;SDS011;11875;49.356;2.718;2023-06-22T00:28:07;4.60;;;2.63;;
23404;SDS011;11875;49.356;2.718;2023-06-22T00:30:33;6.88;;;2.63;;
23404;SDS011;11875;49.356;2.718;2023-06-22T00:32:59;3.95;;;3.00;;
23404;SDS011;11875;49.356;2.718;2023-06-22T00:35:25;6.88;;;2.92;;
23404;SDS011;11875;49.356;2.718;2023-06-22T00:37:57;5.57;;;3.03;;
23404;SDS011;11875;49.356;2.718;2023-06-22T00:40:27;3.83;;;2.65;;
23404;SDS011;11875;49.356;2.718;2023-06-22T00:42:54;3.00;;;2.40;;
23404;SDS011;11875;49.356;2.718;2023-06-22T00:45:20;4.38;;;2.80;;
23404;SDS011;11875;49.356;2.718;2023-06-22T00:47:48;4.45;;;3.10;;
23404;SDS011;11875;49.356;2.718;2023-06-22T00:50:17;5.30;;;2.97;;
23404;SDS011;11875;49.356;2.718;2023-06-22T00:52:47;4.55;;;3.00;;
23404;SDS011;11875;49.356;2.718;2023-06-22T00:55:15;5.43;;;2.90;;
23404;SDS011;11875;49.356;2.718;2023-06-22T00:57:43;5.93;;;3.08;;
23404;SDS011;11875;49.356;2.718;2023-06-22T01:00:11;4.97;;;3.15;;
23404;SDS011;11875;49.356;2.718;2023-06-22T01:02:43;3.55;;;2.72;;
23404;SDS011;11875;49.356;2.718;2023-06-22T01:05:17;3.63;;;2.75;;
23404;SDS011;11875;49.356;2.718;2023-06-22T01:13:02;4.15;;;2.85;;
23404;SDS011;11875;49.356;2.718;2023-06-22T01:15:45;7.07;;;3.25;;
23404;SDS011;11875;49.356;2.718;2023-06-22T01:18:33;7.97;;;2.90;;
23404;SDS011;11875;49.356;2.718;2023-06-22T01:21:02;6.20;;;3.10;;
23404;SDS011;11875;49.356;2.718;2023-06-22T01:23:55;5.50;;;3.00;;
23404;SDS011;11875;49.356;2.718;2023-06-22T01:26:28;4.15;;;3.20;;
23404;SDS011;11875;49.356;2.718;2023-06-22T01:28:59;6.97;;;3.22;;
23404;SDS011;11875;49.356;2.718;2023-06-22T01:31:28;6.07;;;3.20;;
23404;SDS011;11875;49.356;2.718;2023-06-22T01:33:58;9.52;;;3.10;;
23404;SDS011;11875;49.356;2.718;2023-06-22T01:36:26;5.32;;;2.90;;
23404;SDS011;11875;49.356;2.718;2023-06-22T01:38:52;5.63;;;3.10;;
23404;SDS011;11875;49.356;2.718;2023-06-22T01:41:21;4.47;;;3.03;;
23404;SDS011;11875;49.356;2.718;2023-06-22T01:43:49;3.72;;;3.20;;
23404;SDS011;11875;49.356;2.718;2023-06-22T01:46:16;4.95;;;2.80;;
23404;SDS011;11875;49.356;2.718;2023-06-22T01:48:44;4.78;;;2.85;;
23404;SDS011;11875;49.356;2.718;2023-06-22T01:51:11;4.45;;;3.20;;
23404;SDS011;11875;49.356;2.718;2023-06-22T01:53:37;3.78;;;3.08;;
23404;SDS011;11875;49.356;2.718;2023-06-22T01:56:02;4.43;;;3.28;;
23404;SDS011;11875;49.356;2.718;2023-06-22T01:58:29;5.05;;;3.20;;
23404;SDS011;11875;49.356;2.718;2023-06-22T02:01:00;4.78;;;2.88;;
23404;SDS011;11875;49.356;2.718;2023-06-22T02:03:35;4.32;;;3.10;;
23404;SDS011;11875;49.356;2.718;2023-06-22T02:06:08;5.07;;;3.25;;
23404;SDS011;11875;49.356;2.718;2023-06-22T02:08:41;5.05;;;3.25;;
23404;SDS011;11875;49.356;2.718;2023-06-22T02:11:16;5.63;;;3.10;;
23404;SDS011;11875;49.356;2.718;2023-06-22T02:13:44;4.50;;;3.05;;
23404;SDS011;11875;49.356;2.718;2023-06-22T02:16:11;5.32;;;3.00;;
23404;SDS011;11875;49.356;2.718;2023-06-22T02:18:38;5.32;;;3.05;;
23404;SDS011;11875;49.356;2.718;2023-06-22T02:21:05;4.38;;;3.00;;
23404;SDS011;11875;49.356;2.718;2023-06-22T02:23:31;7.93;;;4.30;;
23404;SDS011;11875;49.356;2.718;2023-06-22T02:26:00;7.90;;;3.55;;
23404;SDS011;11875;49.356;2.718;2023-06-22T02:28:27;4.40;;;3.45;;
23404;SDS011;11875;49.356;2.718;2023-06-22T02:30:52;4.25;;;3.63;;
23404;SDS011;11875;49.356;2.718;2023-06-22T02:33:18;4.53;;;3.20;;
23404;SDS011;11875;49.356;2.718;2023-06-22T02:35:44;6.97;;;3.83;;
23404;SDS011;11875;49.356;2.718;2023-06-22T02:38:12;6.70;;;3.92;;
23404;SDS011;11875;49.356;2.718;2023-06-22T02:40:39;6.80;;;3.83;;
23404;SDS011;11875;49.356;2.718;2023-06-22T02:43:05;6.85;;;4.03;;
23404;SDS011;11875;49.356;2.718;2023-06-22T02:45:30;8.98;;;4.75;;
23404;SDS011;11875;49.356;2.718;2023-06-22T02:47:56;6.38;;;4.30;;
23404;SDS011;11875;49.356;2.718;2023-06-22T02:50:22;8.38;;;4.97;;
23404;SDS011;11875;49.356;2.718;2023-06-22T02:52:47;8.65;;;4.68;;
23404;SDS011;11875;49.356;2.718;2023-06-22T02:55:13;5.95;;;4.65;;
23404;SDS011;11875;49.356;2.718;2023-06-22T02:57:39;8.23;;;5.30;;
23404;SDS011;11875;49.356;2.718;2023-06-22T03:00:08;8.60;;;5.72;;
23404;SDS011;11875;49.356;2.718;2023-06-22T03:02:45;8.27;;;5.20;;
23404;SDS011;11875;49.356;2.718;2023-06-22T03:05:14;11.73;;;5.20;;
23404;SDS011;11875;49.356;2.718;2023-06-22T03:07:43;6.22;;;5.00;;
23404;SDS011;11875;49.356;2.718;2023-06-22T03:10:09;8.80;;;4.82;;
23404;SDS011;11875;49.356;2.718;2023-06-22T03:12:36;8.95;;;5.45;;
23404;SDS011;11875;49.356;2.718;2023-06-22T03:15:03;10.57;;;5.60;;
23404;SDS011;11875;49.356;2.718;2023-06-22T03:17:33;7.93;;;5.40;;
23404;SDS011;11875;49.356;2.718;2023-06-22T03:20:00;8.43;;;5.72;;
23404;SDS011;11875;49.356;2.718;2023-06-22T03:22:26;11.73;;;5.93;;
23404;SDS011;11875;49.356;2.718;2023-06-22T03:24:52;12.13;;;5.50;;
23404;SDS011;11875;49.356;2.718;2023-06-22T03:27:17;8.35;;;5.43;;
23404;SDS011;11875;49.356;2.718;2023-06-22T03:29:43;10.55;;;6.65;;
23404;SDS011;11875;49.356;2.718;2023-06-22T03:32:09;10.27;;;5.32;;
23404;SDS011;11875;49.356;2.718;2023-06-22T03:34:35;7.97;;;5.70;;
23404;SDS011;11875;49.356;2.718;2023-06-22T03:37:03;8.35;;;5.97;;
23404;SDS011;11875;49.356;2.718;2023-06-22T03:39:29;9.35;;;6.43;;
23404;SDS011;11875;49.356;2.718;2023-06-22T03:41:55;9.13;;;6.20;;
23404;SDS011;11875;49.356;2.718;2023-06-22T03:44:20;11.02;;;7.53;;
23404;SDS011;11875;49.356;2.718;2023-06-22T03:46:46;12.57;;;7.18;;
23404;SDS011;11875;49.356;2.718;2023-06-22T03:49:12;10.25;;;7.20;;
23404;SDS011;11875;49.356;2.718;2023-06-22T03:51:37;12.75;;;8.10;;
23404;SDS011;11875;49.356;2.718;2023-06-22T03:54:03;11.65;;;7.63;;
23404;SDS011;11875;49.356;2.718;2023-06-22T03:56:29;12.55;;;8.30;;
23404;SDS011;11875;49.356;2.718;2023-06-22T03:58:54;13.32;;;7.63;;
23404;SDS011;11875;49.356;2.718;2023-06-22T04:01:20;12.80;;;7.72;;
23404;SDS011;11875;49.356;2.718;2023-06-22T04:03:46;11.25;;;8.35;;
23404;SDS011;11875;49.356;2.718;2023-06-22T04:06:13;11.85;;;8.52;;
23404;SDS011;11875;49.356;2.718;2023-06-22T04:08:39;16.63;;;9.50;;
23404;SDS011;11875;49.356;2.718;2023-06-22T04:11:05;13.52;;;9.40;;
23404;SDS011;11875;49.356;2.718;2023-06-22T04:13:31;11.63;;;8.45;;
23404;SDS011;11875;49.356;2.718;2023-06-22T04:15:57;13.32;;;9.15;;
23404;SDS011;11875;49.356;2.718;2023-06-22T04:18:23;14.40;;;9.65;;
23404;SDS011;11875;49.356;2.718;2023-06-22T04:20:48;12.82;;;9.40;;
23404;SDS011;11875;49.356;2.718;2023-06-22T04:23:14;13.35;;;8.98;;
23404;SDS011;11875;49.356;2.718;2023-06-22T04:25:39;13.70;;;8.57;;
23404;SDS011;11875;49.356;2.718;2023-06-22T04:28:05;15.98;;;9.60;;
23404;SDS011;11875;49.356;2.718;2023-06-22T04:30:37;12.90;;;9.27;;
23404;SDS011;11875;49.356;2.718;2023-06-22T04:33:11;14.18;;;9.07;;
23404;SDS011;11875;49.356;2.718;2023-06-22T04:35:37;16.73;;;9.68;;
23404;SDS011;11875;49.356;2.718;2023-06-22T04:38:06;14.23;;;9.40;;
23404;SDS011;11875;49.356;2.718;2023-06-22T04:40:32;16.70;;;10.10;;
23404;SDS011;11875;49.356;2.718;2023-06-22T04:42:58;13.10;;;9.95;;
23404;SDS011;11875;49.356;2.718;2023-06-22T04:45:27;14.45;;;9.80;;
23404;SDS011;11875;49.356;2.718;2023-06-22T04:47:54;13.57;;;9.07;;
23404;SDS011;11875;49.356;2.718;2023-06-22T04:50:20;17.83;;;10.18;;
23404;SDS011;11875;49.356;2.718;2023-06-22T04:52:46;13.40;;;10.13;;
23404;SDS011;11875;49.356;2.718;2023-06-22T04:55:12;14.27;;;9.75;;
23404;SDS011;11875;49.356;2.718;2023-06-22T04:57:43;15.02;;;10.63;;
23404;SDS011;11875;49.356;2.718;2023-06-22T05:00:18;15.95;;;9.98;;
23404;SDS011;11875;49.356;2.718;2023-06-22T05:02:44;18.30;;;10.25;;
23404;SDS011;11875;49.356;2.718;2023-06-22T05:05:11;13.27;;;10.02;;
23404;SDS011;11875;49.356;2.718;2023-06-22T05:07:43;14.65;;;9.60;;
23404;SDS011;11875;49.356;2.718;2023-06-22T05:10:12;17.98;;;10.52;;
23404;SDS011;11875;49.356;2.718;2023-06-22T05:12:38;14.93;;;10.48;;
23404;SDS011;11875;49.356;2.718;2023-06-22T05:15:05;14.55;;;10.95;;
23404;SDS011;11875;49.356;2.718;2023-06-22T05:17:35;14.85;;;11.43;;
23404;SDS011;11875;49.356;2.718;2023-06-22T05:20:01;16.35;;;12.65;;
23404;SDS011;11875;49.356;2.718;2023-06-22T05:22:27;19.17;;;11.60;;
23404;SDS011;11875;49.356;2.718;2023-06-22T05:24:53;17.25;;;11.10;;
23404;SDS011;11875;49.356;2.718;2023-06-22T05:27:19;17.42;;;11.48;;
23404;SDS011;11875;49.356;2.718;2023-06-22T05:29:44;15.88;;;10.75;;
23404;SDS011;11875;49.356;2.718;2023-06-22T05:32:10;14.73;;;10.75;;
23404;SDS011;11875;49.356;2.718;2023-06-22T05:34:35;16.77;;;11.00;;
23404;SDS011;11875;49.356;2.718;2023-06-22T05:37:02;15.43;;;11.02;;
23404;SDS011;11875;49.356;2.718;2023-06-22T05:39:27;12.88;;;10.38;;
23404;SDS011;11875;49.356;2.718;2023-06-22T05:41:53;17.20;;;11.38;;
23404;SDS011;11875;49.356;2.718;2023-06-22T05:44:18;17.50;;;11.30;;
23404;SDS011;11875;49.356;2.718;2023-06-22T05:46:44;21.58;;;11.45;;
23404;SDS011;11875;49.356;2.718;2023-06-22T05:49:11;16.48;;;11.55;;
23404;SDS011;11875;49.356;2.718;2023-06-22T05:51:37;16.20;;;11.70;;
23404;SDS011;11875;49.356;2.718;2023-06-22T05:54:03;21.05;;;12.32;;
23404;SDS011;11875;49.356;2.718;2023-06-22T05:56:29;18.48;;;12.00;;
23404;SDS011;11875;49.356;2.718;2023-06-22T05:58:55;18.58;;;11.88;;
23404;SDS011;11875;49.356;2.718;2023-06-22T06:01:20;20.20;;;11.32;;
23404;SDS011;11875;49.356;2.718;2023-06-22T06:03:46;17.98;;;11.75;;
23404;SDS011;11875;49.356;2.718;2023-06-22T06:06:11;15.98;;;11.45;;
23404;SDS011;11875;49.356;2.718;2023-06-22T06:08:38;18.98;;;11.85;;
23404;SDS011;11875;49.356;2.718;2023-06-22T06:11:04;17.42;;;12.27;;
23404;SDS011;11875;49.356;2.718;2023-06-22T06:13:29;20.48;;;12.38;;
23404;SDS011;11875;49.356;2.718;2023-06-22T06:15:55;24.85;;;12.57;;
23404;SDS011;11875;49.356;2.718;2023-06-22T06:18:22;19.90;;;12.73;;
23404;SDS011;11875;49.356;2.718;2023-06-22T06:20:47;20.90;;;12.48;;
23404;SDS011;11875;49.356;2.718;2023-06-22T06:23:13;15.57;;;11.05;;
23404;SDS011;11875;49.356;2.718;2023-06-22T06:25:39;21.83;;;11.68;;
23404;SDS011;11875;49.356;2.718;2023-06-22T06:28:04;22.23;;;12.30;;
23404;SDS011;11875;49.356;2.718;2023-06-22T06:30:30;18.15;;;12.10;;
23404;SDS011;11875;49.356;2.718;2023-06-22T06:32:56;18.77;;;11.63;;
23404;SDS011;11875;49.356;2.718;2023-06-22T06:35:22;20.38;;;11.85;;
23404;SDS011;11875;49.356;2.718;2023-06-22T06:37:48;17.15;;;11.23;;
23404;SDS011;11875;49.356;2.718;2023-06-22T06:40:15;18.67;;;11.93;;
23404;SDS011;11875;49.356;2.718;2023-06-22T06:42:44;16.98;;;12.00;;
23404;SDS011;11875;49.356;2.718;2023-06-22T06:45:15;20.83;;;11.88;;
23404;SDS011;11875;49.356;2.718;2023-06-22T06:47:47;18.38;;;11.95;;
23404;SDS011;11875;49.356;2.718;2023-06-22T06:50:13;17.80;;;12.02;;
23404;SDS011;11875;49.356;2.718;2023-06-22T06:52:39;17.33;;;11.52;;
23404;SDS011;11875;49.356;2.718;2023-06-22T06:55:05;17.73;;;11.73;;
23404;SDS011;11875;49.356;2.718;2023-06-22T06:57:32;17.52;;;12.38;;
23404;SDS011;11875;49.356;2.718;2023-06-22T06:59:58;17.88;;;12.00;;
23404;SDS011;11875;49.356;2.718;2023-06-22T07:02:25;18.35;;;12.40;;
23404;SDS011;11875;49.356;2.718;2023-06-22T07:04:52;17.35;;;11.52;;
23404;SDS011;11875;49.356;2.718;2023-06-22T07:07:20;16.33;;;11.52;;
23404;SDS011;11875;49.356;2.718;2023-06-22T07:09:46;23.38;;;12.98;;
23404;SDS011;11875;49.356;2.718;2023-06-22T07:12:11;20.02;;;12.80;;
23404;SDS011;11875;49.356;2.718;2023-06-22T07:14:37;17.30;;;10.95;;
23404;SDS011;11875;49.356;2.718;2023-06-22T07:17:03;30.88;;;12.40;;
23404;SDS011;11875;49.356;2.718;2023-06-22T07:19:28;19.60;;;12.48;;
23404;SDS011;11875;49.356;2.718;2023-06-22T07:21:55;21.17;;;12.52;;
23404;SDS011;11875;49.356;2.718;2023-06-22T07:24:21;21.23;;;12.93;;
23404;SDS011;11875;49.356;2.718;2023-06-22T07:26:48;18.08;;;12.32;;
23404;SDS011;11875;49.356;2.718;2023-06-22T07:29:15;21.50;;;14.25;;
23404;SDS011;11875;49.356;2.718;2023-06-22T07:31:42;17.92;;;12.25;;
23404;SDS011;11875;49.356;2.718;2023-06-22T07:34:07;18.67;;;11.32;;
23404;SDS011;11875;49.356;2.718;2023-06-22T07:36:33;22.20;;;11.70;;
23404;SDS011;11875;49.356;2.718;2023-06-22T07:39:00;18.13;;;11.52;;
23404;SDS011;11875;49.356;2.718;2023-06-22T07:41:27;17.02;;;10.60;;
23404;SDS011;11875;49.356;2.718;2023-06-22T07:43:53;18.52;;;11.55;;
23404;SDS011;11875;49.356;2.718;2023-06-22T07:46:19;17.95;;;11.25;;
23404;SDS011;11875;49.356;2.718;2023-06-22T07:48:44;15.57;;;11.43;;
23404;SDS011;11875;49.356;2.718;2023-06-22T07:51:10;19.27;;;10.95;;
23404;SDS011;11875;49.356;2.718;2023-06-22T07:53:37;16.45;;;11.38;;
23404;SDS011;11875;49.356;2.718;2023-06-22T07:56:05;17.58;;;11.18;;
23404;SDS011;11875;49.356;2.718;2023-06-22T07:58:32;22.88;;;11.82;;
23404;SDS011;11875;49.356;2.718;2023-06-22T08:00:58;18.00;;;11.43;;
23404;SDS011;11875;49.356;2.718;2023-06-22T08:03:24;15.27;;;9.80;;
23404;SDS011;11875;49.356;2.718;2023-06-22T08:05:49;13.93;;;9.95;;
23404;SDS011;11875;49.356;2.718;2023-06-22T08:08:15;14.30;;;8.95;;
23404;SDS011;11875;49.356;2.718;2023-06-22T08:10:41;15.18;;;10.07;;
23404;SDS011;11875;49.356;2.718;2023-06-22T08:13:07;16.67;;;10.32;;
23404;SDS011;11875;49.356;2.718;2023-06-22T08:15:33;17.30;;;10.90;;
23404;SDS011;11875;49.356;2.718;2023-06-22T08:17:59;14.20;;;9.95;;
23404;SDS011;11875;49.356;2.718;2023-06-22T08:20:26;12.05;;;9.52;;
23404;SDS011;11875;49.356;2.718;2023-06-22T08:22:52;16.30;;;10.38;;
23404;SDS011;11875;49.356;2.718;2023-06-22T08:25:19;18.55;;;9.73;;
23404;SDS011;11875;49.356;2.718;2023-06-22T08:27:45;14.45;;;9.77;;
23404;SDS011;11875;49.356;2.718;2023-06-22T08:30:12;17.10;;;9.75;;
23404;SDS011;11875;49.356;2.718;2023-06-22T08:32:38;18.75;;;9.50;;
23404;SDS011;11875;49.356;2.718;2023-06-22T08:35:04;12.63;;;9.50;;
23404;SDS011;11875;49.356;2.718;2023-06-22T08:37:33;16.80;;;9.90;;
23404;SDS011;11875;49.356;2.718;2023-06-22T08:40:01;16.48;;;10.70;;
23404;SDS011;11875;49.356;2.718;2023-06-22T08:42:35;20.05;;;11.05;;
23404;SDS011;11875;49.356;2.718;2023-06-22T08:45:01;14.57;;;10.27;;
23404;SDS011;11875;49.356;2.718;2023-06-22T08:47:28;19.85;;;11.93;;
23404;SDS011;11875;49.356;2.718;2023-06-22T08:49:53;19.25;;;10.65;;
23404;SDS011;11875;49.356;2.718;2023-06-22T08:52:19;20.17;;;10.68;;
23404;SDS011;11875;49.356;2.718;2023-06-22T08:54:45;16.02;;;10.85;;
23404;SDS011;11875;49.356;2.718;2023-06-22T08:57:12;17.60;;;10.68;;
23404;SDS011;11875;49.356;2.718;2023-06-22T08:59:38;23.42;;;11.13;;
23404;SDS011;11875;49.356;2.718;2023-06-22T09:02:04;14.65;;;10.30;;
23404;SDS011;11875;49.356;2.718;2023-06-22T09:04:30;14.95;;;9.65;;
23404;SDS011;11875;49.356;2.718;2023-06-22T09:06:59;18.02;;;10.00;;
23404;SDS011;11875;49.356;2.718;2023-06-22T09:09:25;15.32;;;10.15;;
23404;SDS011;11875;49.356;2.718;2023-06-22T09:11:51;15.35;;;10.05;;
23404;SDS011;11875;49.356;2.718;2023-06-22T09:14:17;12.48;;;9.55;;
23404;SDS011;11875;49.356;2.718;2023-06-22T09:16:42;17.30;;;10.77;;
23404;SDS011;11875;49.356;2.718;2023-06-22T09:19:08;19.67;;;10.68;;
23404;SDS011;11875;49.356;2.718;2023-06-22T09:21:33;15.20;;;10.27;;
23404;SDS011;11875;49.356;2.718;2023-06-22T09:23:59;22.60;;;10.65;;
23404;SDS011;11875;49.356;2.718;2023-06-22T09:26:25;15.15;;;10.98;;
23404;SDS011;11875;49.356;2.718;2023-06-22T09:28:50;15.32;;;10.88;;
23404;SDS011;11875;49.356;2.718;2023-06-22T09:31:16;15.25;;;10.80;;
23404;SDS011;11875;49.356;2.718;2023-06-22T09:33:42;16.45;;;12.13;;
23404;SDS011;11875;49.356;2.718;2023-06-22T09:36:08;16.20;;;10.63;;
23404;SDS011;11875;49.356;2.718;2023-06-22T09:38:36;16.77;;;10.95;;
23404;SDS011;11875;49.356;2.718;2023-06-22T09:41:02;17.10;;;11.77;;
23404;SDS011;11875;49.356;2.718;2023-06-22T09:43:29;19.00;;;12.23;;
23404;SDS011;11875;49.356;2.718;2023-06-22T09:45:56;16.77;;;12.23;;
23404;SDS011;11875;49.356;2.718;2023-06-22T09:48:21;17.65;;;11.95;;
23404;SDS011;11875;49.356;2.718;2023-06-22T09:50:47;20.48;;;13.07;;
23404;SDS011;11875;49.356;2.718;2023-06-22T09:53:13;18.90;;;12.20;;
23404;SDS011;11875;49.356;2.718;2023-06-22T09:55:38;18.92;;;12.93;;
23404;SDS011;11875;49.356;2.718;2023-06-22T09:58:04;17.17;;;12.88;;
23404;SDS011;11875;49.356;2.718;2023-06-22T10:00:29;17.40;;;12.20;;
23404;SDS011;11875;49.356;2.718;2023-06-22T10:02:55;18.05;;;12.45;;
23404;SDS011;11875;49.356;2.718;2023-06-22T10:05:21;19.52;;;13.68;;
23404;SDS011;11875;49.356;2.718;2023-06-22T10:07:47;20.70;;;13.75;;
23404;SDS011;11875;49.356;2.718;2023-06-22T10:10:12;18.23;;;12.90;;
23404;SDS011;11875;49.356;2.718;2023-06-22T10:12:46;19.45;;;12.80;;
23404;SDS011;11875;49.356;2.718;2023-06-22T10:15:13;15.73;;;12.23;;
23404;SDS011;11875;49.356;2.718;2023-06-22T10:17:39;18.85;;;11.77;;
23404;SDS011;11875;49.356;2.718;2023-06-22T10:20:06;18.45;;;12.95;;
23404;SDS011;11875;49.356;2.718;2023-06-22T10:22:38;21.95;;;14.70;;
23404;SDS011;11875;49.356;2.718;2023-06-22T10:25:07;15.38;;;12.57;;
23404;SDS011;11875;49.356;2.718;2023-06-22T10:27:33;17.42;;;12.00;;
23404;SDS011;11875;49.356;2.718;2023-06-22T10:29:58;15.60;;;11.82;;
23404;SDS011;11875;49.356;2.718;2023-06-22T10:32:24;18.45;;;12.95;;
23404;SDS011;11875;49.356;2.718;2023-06-22T10:34:50;19.45;;;12.13;;
23404;SDS011;11875;49.356;2.718;2023-06-22T10:37:15;16.77;;;12.65;;
23404;SDS011;11875;49.356;2.718;2023-06-22T10:39:41;17.38;;;12.23;;
23404;SDS011;11875;49.356;2.718;2023-06-22T10:42:07;18.85;;;13.30;;
23404;SDS011;11875;49.356;2.718;2023-06-22T10:44:32;20.50;;;13.40;;
23404;SDS011;11875;49.356;2.718;2023-06-22T10:46:58;17.50;;;12.93;;
23404;SDS011;11875;49.356;2.718;2023-06-22T10:49:23;18.90;;;13.63;;
23404;SDS011;11875;49.356;2.718;2023-06-22T10:51:49;17.08;;;13.32;;
23404;SDS011;11875;49.356;2.718;2023-06-22T10:54:14;17.75;;;12.80;;
23404;SDS011;11875;49.356;2.718;2023-06-22T10:56:43;20.35;;;13.63;;
23404;SDS011;11875;49.356;2.718;2023-06-22T10:59:08;19.33;;;13.35;;
23404;SDS011;11875;49.356;2.718;2023-06-22T11:01:34;17.08;;;13.77;;
23404;SDS011;11875;49.356;2.718;2023-06-22T11:03:59;20.10;;;13.20;;
23404;SDS011;11875;49.356;2.718;2023-06-22T11:06:25;16.25;;;12.43;;
23404;SDS011;11875;49.356;2.718;2023-06-22T11:08:50;18.13;;;13.02;;
23404;SDS011;11875;49.356;2.718;2023-06-22T11:11:16;16.50;;;12.95;;
23404;SDS011;11875;49.356;2.718;2023-06-22T11:13:44;16.10;;;12.80;;
23404;SDS011;11875;49.356;2.718;2023-06-22T11:16:10;18.77;;;13.35;;
23404;SDS011;11875;49.356;2.718;2023-06-22T11:18:35;16.15;;;11.10;;
23404;SDS011;11875;49.356;2.718;2023-06-22T11:21:01;15.95;;;12.40;;
23404;SDS011;11875;49.356;2.718;2023-06-22T11:23:27;17.05;;;11.02;;
23404;SDS011;11875;49.356;2.718;2023-06-22T11:25:53;16.85;;;12.00;;
23404;SDS011;11875;49.356;2.718;2023-06-22T11:28:19;16.20;;;10.95;;
23404;SDS011;11875;49.356;2.718;2023-06-22T11:30:45;17.42;;;11.57;;
23404;SDS011;11875;49.356;2.718;2023-06-22T11:33:11;13.95;;;11.48;;
23404;SDS011;11875;49.356;2.718;2023-06-22T11:35:36;17.08;;;11.02;;
23404;SDS011;11875;49.356;2.718;2023-06-22T11:38:02;19.15;;;11.13;;
23404;SDS011;11875;49.356;2.718;2023-06-22T11:40:29;11.63;;;9.80;;
23404;SDS011;11875;49.356;2.718;2023-06-22T11:42:55;13.38;;;10.90;;
23404;SDS011;11875;49.356;2.718;2023-06-22T11:45:20;13.40;;;11.10;;
23404;SDS011;11875;49.356;2.718;2023-06-22T11:47:46;12.73;;;10.18;;
23404;SDS011;11875;49.356;2.718;2023-06-22T11:50:12;13.55;;;11.18;;
23404;SDS011;11875;49.356;2.718;2023-06-22T11:52:37;17.13;;;10.90;;
23404;SDS011;11875;49.356;2.718;2023-06-22T11:55:03;14.98;;;10.27;;
23404;SDS011;11875;49.356;2.718;2023-06-22T11:57:32;12.35;;;10.38;;
23404;SDS011;11875;49.356;2.718;2023-06-22T11:59:59;13.80;;;10.35;;
23404;SDS011;11875;49.356;2.718;2023-06-22T12:02:24;13.82;;;10.57;;
23404;SDS011;11875;49.356;2.718;2023-06-22T12:04:50;14.20;;;10.02;;
23404;SDS011;11875;49.356;2.718;2023-06-22T12:07:17;10.75;;;9.40;;
23404;SDS011;11875;49.356;2.718;2023-06-22T12:09:43;14.80;;;10.38;;
23404;SDS011;11875;49.356;2.718;2023-06-22T12:12:09;10.38;;;8.85;;
23404;SDS011;11875;49.356;2.718;2023-06-22T12:14:35;11.43;;;10.20;;
23404;SDS011;11875;49.356;2.718;2023-06-22T12:17:00;13.23;;;9.50;;
23404;SDS011;11875;49.356;2.718;2023-06-22T12:19:26;12.65;;;9.57;;
23404;SDS011;11875;49.356;2.718;2023-06-22T12:21:52;14.98;;;9.73;;
23404;SDS011;11875;49.356;2.718;2023-06-22T12:24:17;10.02;;;7.85;;
23404;SDS011;11875;49.356;2.718;2023-06-22T12:26:43;11.68;;;8.35;;
23404;SDS011;11875;49.356;2.718;2023-06-22T12:29:09;10.75;;;8.02;;
23404;SDS011;11875;49.356;2.718;2023-06-22T12:31:35;12.15;;;7.93;;
23404;SDS011;11875;49.356;2.718;2023-06-22T12:34:01;8.30;;;7.38;;
23404;SDS011;11875;49.356;2.718;2023-06-22T12:36:27;8.00;;;6.97;;
23404;SDS011;11875;49.356;2.718;2023-06-22T12:38:53;9.57;;;7.03;;
23404;SDS011;11875;49.356;2.718;2023-06-22T12:41:19;9.63;;;7.63;;
23404;SDS011;11875;49.356;2.718;2023-06-22T12:43:44;12.30;;;8.35;;
23404;SDS011;11875;49.356;2.718;2023-06-22T12:46:11;10.98;;;7.57;;
23404;SDS011;11875;49.356;2.718;2023-06-22T12:48:36;9.82;;;7.93;;
23404;SDS011;11875;49.356;2.718;2023-06-22T12:51:06;11.15;;;8.52;;
23404;SDS011;11875;49.356;2.718;2023-06-22T12:53:33;13.00;;;8.27;;
23404;SDS011;11875;49.356;2.718;2023-06-22T12:55:58;11.05;;;8.02;;
23404;SDS011;11875;49.356;2.718;2023-06-22T12:58:24;9.82;;;7.63;;
23404;SDS011;11875;49.356;2.718;2023-06-22T13:00:50;11.48;;;7.28;;
23404;SDS011;11875;49.356;2.718;2023-06-22T13:03:15;12.27;;;7.68;;
23404;SDS011;11875;49.356;2.718;2023-06-22T13:05:41;10.88;;;8.45;;
23404;SDS011;11875;49.356;2.718;2023-06-22T13:08:07;10.45;;;8.63;;
23404;SDS011;11875;49.356;2.718;2023-06-22T13:10:33;8.15;;;7.03;;
23404;SDS011;11875;49.356;2.718;2023-06-22T13:12:58;10.18;;;7.78;;
23404;SDS011;11875;49.356;2.718;2023-06-22T13:15:26;9.68;;;8.68;;
23404;SDS011;11875;49.356;2.718;2023-06-22T13:17:53;10.52;;;7.47;;
23404;SDS011;11875;49.356;2.718;2023-06-22T13:20:19;10.20;;;8.15;;
23404;SDS011;11875;49.356;2.718;2023-06-22T13:22:45;9.80;;;8.32;;
23404;SDS011;11875;49.356;2.718;2023-06-22T13:25:10;10.93;;;7.30;;
23404;SDS011;11875;49.356;2.718;2023-06-22T13:27:40;9.75;;;8.27;;
23404;SDS011;11875;49.356;2.718;2023-06-22T13:30:07;11.57;;;8.00;;
23404;SDS011;11875;49.356;2.718;2023-06-22T13:32:33;12.05;;;7.72;;
23404;SDS011;11875;49.356;2.718;2023-06-22T13:34:59;9.15;;;7.90;;
23404;SDS011;11875;49.356;2.718;2023-06-22T13:37:25;11.05;;;8.52;;
23404;SDS011;11875;49.356;2.718;2023-06-22T13:39:51;9.85;;;7.55;;
23404;SDS011;11875;49.356;2.718;2023-06-22T13:42:16;8.73;;;7.45;;
23404;SDS011;11875;49.356;2.718;2023-06-22T13:44:43;12.50;;;8.65;;
23404;SDS011;11875;49.356;2.718;2023-06-22T13:47:09;11.23;;;7.32;;
23404;SDS011;11875;49.356;2.718;2023-06-22T13:49:35;10.07;;;7.72;;
23404;SDS011;11875;49.356;2.718;2023-06-22T13:52:00;9.35;;;7.47;;
23404;SDS011;11875;49.356;2.718;2023-06-22T13:54:28;9.32;;;7.50;;
23404;SDS011;11875;49.356;2.718;2023-06-22T13:56:53;11.55;;;7.95;;
23404;SDS011;11875;49.356;2.718;2023-06-22T13:59:19;15.13;;;9.10;;
23404;SDS011;11875;49.356;2.718;2023-06-22T14:01:46;9.98;;;7.93;;
23404;SDS011;11875;49.356;2.718;2023-06-22T14:04:11;11.68;;;8.07;;
23404;SDS011;11875;49.356;2.718;2023-06-22T14:06:37;10.40;;;7.90;;
23404;SDS011;11875;49.356;2.718;2023-06-22T14:09:03;11.70;;;8.32;;
23404;SDS011;11875;49.356;2.718;2023-06-22T14:11:28;10.68;;;8.20;;
23404;SDS011;11875;49.356;2.718;2023-06-22T14:13:54;10.57;;;8.55;;
23404;SDS011;11875;49.356;2.718;2023-06-22T14:16:20;12.48;;;8.98;;
23404;SDS011;11875;49.356;2.718;2023-06-22T14:18:45;12.18;;;8.75;;
23404;SDS011;11875;49.356;2.718;2023-06-22T14:21:11;9.65;;;7.93;;
23404;SDS011;11875;49.356;2.718;2023-06-22T14:23:36;12.70;;;8.43;;
23404;SDS011;11875;49.356;2.718;2023-06-22T14:26:02;14.05;;;9.35;;
23404;SDS011;11875;49.356;2.718;2023-06-22T14:28:28;12.88;;;8.63;;
23404;SDS011;11875;49.356;2.718;2023-06-22T14:30:54;10.75;;;8.52;;
23404;SDS011;11875;49.356;2.718;2023-06-22T14:33:19;15.57;;;8.63;;